Airfield :
LOGIN :

Register | Disclaimer

   EN    FR    IT 

 










Legend :    VFR   Marginal VFR   IFR   Intensive IFR   Very Intensive IFR
Visi :
Ceiling :
>= 8 km
>= 3000ft
5 to 8 km
1000 to 3000 ft
1500m to 5 km
500 to 1000 ft
800 to 1500m
200 to 500 ft
< 800m
< 200 ft
Symbols :   Thunderstorms  Fog  Heavy snow  Heavy precipitations  Wind > 20 kt
SIGMETs :     Misc.  Thunderstorms  Icing  Turbulence  Mountain Waves  Volcanic Ashes







- Airport Elevation : 49 ft
- IATA code : GLZ


EHGR - Gilze-Rijen Airbase

CURRENT METAR :
  • 182157Z AUTO 36003KT 320V040 9999 NCD 18/11 Q1019 BLU

EXPIRED METARs :
  • 182155Z AUTO 35004KT 310V040 9999 NCD 18/11 Q1019 BLU 34004KT CAVOK
  • 182125Z AUTO 36005KT 320V060 9999 NCD 18/11 Q1019 BLU 34006KT CAVOK
  • 182055Z AUTO 34004KT 300V030 9999 NCD 19/11 Q1019 BLU 34006KT CAVOK
  • 182025Z AUTO 33005KT 290V360 9999 NCD 19/11 Q1019 BLU 34006KT CAVOK
  • 181955Z AUTO 33007KT 280V030 9999 NCD 20/10 Q1018 BLU 34006KT CAVOK
  • 181925Z AUTO 34008KT 290V040 9999 NCD 21/11 Q1018 BLU 34006KT CAVOK

TAF TAF EHGR
Valid from the 18 at 17:00 until the 19 at 05:00 UTC


181633Z 1817/1905 31005KT CAVOK
BECMG 1819/1821 VRB03KT
No reported NOTAMs for that airfield.



MET'MAP, your aeronautical weather chart ! - Copyright ORBIFLY December 2007 - Disclaimer

ORBIFLY MET'MAP TEAM :

Programming & Development : Alexandra Zaïnal
Concept & Development : Baudouin d'Aumeries
Co-Development & Prog : Marc-Olivier Méhu
Technical & hardware support : Manuel Goepfert

Contact : metmap@orbifly.com




SOURCES & CREDITS :

   NOAA